PILOTS ONLINE: 308    ATC ONLINE: 50

KCDC - Cedar City Regional Airport

Location

IATA CDC
City Cedar City
Country  United States
Latitude 37° 42' 3" N
Longitude 113° 5' 56" W
Elevation 5622 ft
Type Medium Airport

Runways

02/20 8653 ft / 150 ft
08/26 4822 ft / 60 ft

Weather

METAR
2014/07/31 02:53
KCDC 310253Z AUTO 04003KT 10SM CLR 24/09 A3018 RMK AO2 SLP149 T02390094 55000
TAF
2014/07/30 22:24
TAF 
      AMD KCDC 302218Z 3022/3118 34007KT P6SM SCT080 
     FM310300 VRB05KT P6SM FEW080 SCT140

Outbound flights

Inbound flights